Time;durP1;ratioP1;P1;durP2;ratioP2;P2;SDS_P1;SDS_P2;PMS_P1;PMS_P2;Temp;Humidity;BMP_temperature;BMP_pressure;BME280_temperature;BME280_humidity;BME280_pressure;Samples;Min_cycle;Max_cycle;Signal;HPM_P1;HPM_P2
2022/12/16 00:01:41;;;;;;;23.25;7.93;;;;;;;4.60;96.13;97006.66;4408196;32;19946;-80
2022/12/16 00:04:08;;;;;;;36.08;8.15;;;;;;;4.75;96.03;97005.25;4408095;32;20062;-80
2022/12/16 00:06:34;;;;;;;;;;;;;;;5.37;91.52;96995.25;4408217;32;20071;-80
2022/12/16 00:09:01;;;;;;;17.35;6.68;;;;;;;5.06;94.69;96997.31;4407722;32;19946;-80
2022/12/16 00:11:46;;;;;;;21.25;6.85;;;;;;;4.93;95.54;96999.50;4408563;32;20153;-79
2022/12/16 00:14:13;;;;;;;22.13;5.90;;;;;;;4.88;93.77;96994.53;4408789;32;20058;-80
2022/12/16 00:16:39;;;;;;;25.17;6.87;;;;;;;4.96;94.62;96991.69;4408328;32;20066;-80
2022/12/16 00:19:06;;;;;;;26.85;7.80;;;;;;;4.59;97.07;96987.94;4408392;32;20105;-80
2022/12/16 00:21:36;;;;;;;35.00;8.82;;;;;;;5.30;91.07;96998.09;4408089;32;20081;-80
2022/12/16 00:24:03;;;;;;;18.33;7.18;;;;;;;5.67;90.91;96985.53;4408603;32;20062;-80
2022/12/16 00:26:30;;;;;;;21.58;6.95;;;;;;;5.58;88.71;96990.19;4407685;32;20078;-80
2022/12/16 00:28:57;;;;;;;23.67;7.57;;;;;;;5.94;87.39;96981.03;4408219;32;20074;-81
2022/12/16 00:31:24;;;;;;;;;;;;;;;5.44;90.07;96973.66;4408251;32;20063;-81
2022/12/16 00:33:55;;;;;;;16.70;4.70;;;;;;;5.70;88.16;96959.81;4394601;32;19954;-80
2022/12/16 00:36:22;;;;;;;16.12;5.20;;;;;;;5.50;90.16;96964.91;4407454;32;20102;-80
2022/12/16 00:38:51;;;;;;;27.30;6.57;;;;;;;4.80;94.70;96965.06;4407802;32;20058;-81
2022/12/16 00:41:21;;;;;;;31.17;6.68;;;;;;;5.28;92.35;96961.53;4407525;32;20086;-80
2022/12/16 00:43:47;;;;;;;45.80;7.20;;;;;;;5.49;89.45;96960.66;4394479;32;20090;-81
2022/12/16 00:46:14;;;;;;;;;;;;;;;4.97;93.54;96955.00;4406870;32;20085;-81
2022/12/16 00:48:41;;;;;;;62.28;8.43;;;;;;;5.25;92.75;96947.13;4406215;32;20641;-80
2022/12/16 00:51:11;;;;;;;;;;;;;;;4.64;95.64;96949.44;4406208;32;20059;-80
2022/12/16 00:53:38;;;;;;;33.65;5.70;;;;;;;4.96;93.65;96942.28;4404768;32;19968;-80
2022/12/16 00:56:06;;;;;;;;;;;;;;;4.64;95.51;96931.56;4405929;32;20186;-80
2022/12/16 00:58:34;;;;;;;25.52;5.72;;;;;;;5.15;93.94;96925.38;4406891;32;19986;-80
2022/12/16 01:01:07;;;;;;;29.48;5.32;;;;;;;4.28;97.40;96915.84;4405901;32;20070;-80
2022/12/16 01:03:35;;;;;;;12.35;3.62;;;;;;;4.83;96.19;96896.75;4406531;32;20101;-80
2022/12/16 01:06:14;;;;;;;62.40;7.75;;;;;;;4.15;98.82;96877.16;4406497;32;20067;-81
2022/12/16 01:08:47;;;;;;;52.38;7.43;;;;;;;4.17;99.36;96874.56;4407049;32;20063;-80
2022/12/16 01:11:16;;;;;;;29.05;4.93;;;;;;;3.91;100.00;96881.41;4406940;32;20087;-80
2022/12/16 01:13:45;;;;;;;35.53;5.07;;;;;;;4.36;99.11;96880.66;4407253;32;20105;-80
2022/12/16 01:16:12;;;;;;;39.15;5.20;;;;;;;4.25;99.17;96855.53;4406856;32;20081;-80
2022/12/16 01:18:39;;;;;;;67.10;8.68;;;;;;;3.84;100.00;96843.41;4407433;32;20089;-80
2022/12/16 01:21:14;;;;;;;;;;;;;;;3.81;100.00;96831.56;4407323;32;20077;-80
2022/12/16 01:23:41;;;;;;;93.00;9.57;;;;;;;3.84;100.00;96831.47;4408169;32;19962;-80
2022/12/16 01:26:09;;;;;;;43.97;6.15;;;;;;;3.83;100.00;96828.97;4405792;32;20081;-80
2022/12/16 01:28:36;;;;;;;40.12;6.87;;;;;;;3.54;100.00;96833.38;4394259;32;20101;-80
2022/12/16 01:31:11;;;;;;;;;;;;;;;4.17;100.00;96826.06;4406146;32;20073;-80
2022/12/16 01:33:38;;;;;;;100.75;8.35;;;;;;;4.58;97.82;96833.00;4391953;32;20427;-81
2022/12/16 01:36:06;;;;;;;67.53;8.68;;;;;;;4.85;96.12;96828.53;4405706;32;20121;-80
2022/12/16 01:38:34;;;;;;;47.92;6.57;;;;;;;4.57;98.79;96825.38;4404736;32;20054;-81
2022/12/16 01:41:04;;;;;;;117.40;11.12;;;;;;;5.33;92.98;96817.22;4404785;32;20073;-81
2022/12/16 01:43:34;;;;;;;199.43;15.80;;;;;;;4.82;95.17;96810.75;4403779;32;20098;-81
2022/12/16 01:46:10;;;;;;;41.40;5.22;;;;;;;4.96;93.98;96817.88;4403361;32;20078;-81
2022/12/16 01:48:40;;;;;;;143.52;10.20;;;;;;;4.73;96.17;96808.56;4403085;32;20073;-81
2022/12/16 01:51:13;;;;;;;175.77;11.93;;;;;;;4.89;97.09;96790.88;4402886;32;20058;-81
2022/12/16 01:53:41;;;;;;;29.60;5.20;;;;;;;5.09;94.06;96800.31;4389644;32;20089;-81
2022/12/16 01:56:09;;;;;;;62.28;6.70;;;;;;;5.46;93.58;96781.72;4389423;32;20094;-81
2022/12/16 01:58:37;;;;;;;97.60;8.25;;;;;;;5.88;89.09;96796.12;4389234;32;20104;-80
2022/12/16 02:01:04;;;;;;;41.28;5.20;;;;;;;5.23;92.87;96792.94;4403902;32;20105;-80
2022/12/16 02:03:34;;;;;;;91.57;7.85;;;;;;;5.34;92.09;96792.47;4404857;32;20077;-80
2022/12/16 02:06:04;;;;;;;238.55;16.08;;;;;;;5.51;91.85;96792.59;4390839;32;20089;-81
2022/12/16 02:08:31;;;;;;;147.05;11.68;;;;;;;5.43;92.17;96786.97;4406118;32;20054;-81
2022/12/16 02:11:32;;;;;;;21.87;4.22;;;;;;;4.70;97.23;96749.94;4405771;32;20094;-80
2022/12/16 02:14:11;;;;;;;244.93;15.38;;;;;;;5.22;95.20;96748.63;4406319;32;20094;-80
2022/12/16 02:16:58;;;;;;;268.52;15.50;;;;;;;4.74;96.78;96740.41;4406362;32;20070;-80
2022/12/16 02:19:47;;;;;;;192.60;13.10;;;;;;;5.57;93.69;96758.25;4394395;32;20161;-81
2022/12/16 02:22:20;;;;;;;201.12;13.07;;;;;;;5.24;93.88;96738.31;4408169;32;20062;-80
2022/12/16 02:25:05;;;;;;;222.68;14.18;;;;;;;5.49;93.72;96738.09;4407680;32;20066;-80
2022/12/16 02:28:00;;;;;;;56.72;7.05;;;;;;;5.10;96.33;96726.09;4406749;32;20077;-81
2022/12/16 02:30:50;;;;;;;188.62;13.18;;;;;;;5.49;93.61;96717.63;4407334;32;20086;-81
2022/12/16 02:33:21;;;;;;;148.98;12.98;;;;;;;5.03;96.97;96737.50;4406638;32;20050;-81
2022/12/16 02:35:50;;;;;;;63.92;7.25;;;;;;;5.21;95.51;96741.84;4406651;32;20067;-81
2022/12/16 02:38:38;;;;;;;45.85;6.85;;;;;;;4.21;100.00;96748.44;4405649;32;20082;-81
2022/12/16 02:41:16;;;;;;;197.73;13.38;;;;;;;4.31;100.00;96745.47;4392312;32;20161;-81
2022/12/16 02:43:42;;;;;;;97.75;8.68;;;;;;;5.45;94.82;96755.31;4405354;32;20073;-81
2022/12/16 02:46:09;;;;;;;;;;;;;;;5.75;92.31;96752.34;4406405;32;20078;-80
2022/12/16 02:48:36;;;;;;;72.82;8.50;;;;;;;5.67;93.56;96754.37;4407222;32;19954;-81
2022/12/16 02:51:03;;;;;;;;;;;;;;;5.73;91.99;96746.44;4406515;32;20077;-81
2022/12/16 02:53:34;;;;;;;49.00;6.40;;;;;;;5.99;89.32;96738.47;4406568;32;19954;-80
2022/12/16 02:56:18;;;;;;;31.52;6.05;;;;;;;5.94;90.79;96737.81;4407307;32;20067;-81
2022/12/16 02:58:51;;;;;;;110.63;10.77;;;;;;;5.49;90.96;96735.53;4406204;32;20090;-80
2022/12/16 03:02:00;;;;;;;46.42;6.45;;;;;;;4.77;96.21;96723.22;4392390;32;20077;-80
2022/12/16 03:04:37;;;;;;;12.95;3.15;;;;;;;5.71;91.85;96715.78;4390725;32;20071;-80
2022/12/16 03:07:06;;;;;;;62.92;7.60;;;;;;;6.22;89.15;96705.84;4380038;32;20109;-80
2022/12/16 03:09:37;;;;;;;13.62;3.65;;;;;;;4.86;95.02;96702.41;4394066;32;20086;-80
2022/12/16 03:12:08;;;;;;;48.83;6.60;;;;;;;5.62;92.75;96705.94;4393100;32;20101;-80
2022/12/16 03:14:38;;;;;;;21.60;6.40;;;;;;;4.86;95.01;96706.69;4391544;32;20062;-80
2022/12/16 03:17:07;;;;;;;39.80;7.32;;;;;;;5.34;95.16;96715.75;4404817;32;20103;-81
2022/12/16 03:19:35;;;;;;;45.25;7.15;;;;;;;4.98;96.54;96726.63;4404993;32;20094;-81
2022/12/16 03:22:14;;;;;;;48.78;8.65;;;;;;;5.45;92.47;96737.41;4394139;32;20058;-80
2022/12/16 03:24:41;;;;;;;17.73;5.05;;;;;;;6.38;88.46;96728.12;4393610;32;20112;-80
2022/12/16 03:27:30;;;;;;;22.02;4.97;;;;;;;6.07;89.90;96722.75;4405204;32;20702;-80
2022/12/16 03:30:11;;;;;;;26.80;5.80;;;;;;;5.40;94.20;96697.56;4390543;32;20106;-80
2022/12/16 03:33:07;;;;;;;24.37;6.07;;;;;;;5.56;93.77;96708.81;4391233;32;20058;-81
2022/12/16 03:35:39;;;;;;;37.85;5.05;;;;;;;5.93;92.36;96694.38;4405243;32;20089;-80
2022/12/16 03:38:09;;;;;;;54.22;6.97;;;;;;;5.64;95.57;96691.38;4391518;32;20082;-81
2022/12/16 03:40:38;;;;;;;104.47;11.07;;;;;;;4.97;100.00;96678.13;4391352;32;20107;-80
2022/12/16 03:43:06;;;;;;;81.50;8.27;;;;;;;5.72;97.57;96675.66;4391537;32;20067;-80
2022/12/16 03:45:38;;;;;;;91.20;9.52;;;;;;;5.34;99.40;96675.66;4406473;32;20081;-81
2022/12/16 03:48:09;;;;;;;62.60;8.48;;;;;;;4.79;100.00;96667.78;4393301;32;20075;-81
2022/12/16 03:50:49;;;;;;;72.70;8.70;;;;;;;5.45;98.25;96673.47;4406567;32;20071;-80
2022/12/16 03:53:15;;;;;;;105.95;8.90;;;;;;;4.80;100.00;96660.94;4407403;32;20067;-81
2022/12/16 03:55:42;;;;;;;;;;;;;;;4.93;100.00;96652.69;4408124;32;20077;-80
2022/12/16 03:58:09;;;;;;;47.35;7.45;;;;;;;4.99;100.00;96658.44;4408140;32;19961;-80
2022/12/16 04:00:46;;;;;;;;;;;;;;;4.33;100.00;96646.66;4408609;32;20059;-80
2022/12/16 04:03:13;;;;;;;54.72;7.37;;;;;;;4.42;100.00;96642.09;4408545;32;19980;-80
2022/12/16 04:05:40;;;;;;;138.68;11.38;;;;;;;4.05;100.00;96641.00;4407964;32;20097;-81
2022/12/16 04:08:07;;;;;;;;;;;;;;;4.65;100.00;96630.03;4409169;32;20058;-81
2022/12/16 04:24:35;;;;;;;83.47;8.18;;;;;;;5.36;98.19;96612.47;4407613;32;20054;-80
